sensor_id;sensor_type;location;lat;lon;timestamp;P1;durP1;ratioP1;P2;durP2;ratioP2
71648;SDS011;70112;45.624;11.760;2023-08-17T00:01:27;14.40;;;9.80;;
71648;SDS011;70112;45.624;11.760;2023-08-17T00:03:52;11.20;;;10.00;;
71648;SDS011;70112;45.624;11.760;2023-08-17T00:06:18;11.10;;;10.00;;
71648;SDS011;70112;45.624;11.760;2023-08-17T00:08:44;12.30;;;10.60;;
71648;SDS011;70112;45.624;11.760;2023-08-17T00:11:09;13.70;;;11.80;;
71648;SDS011;70112;45.624;11.760;2023-08-17T00:13:35;12.50;;;11.20;;
71648;SDS011;70112;45.624;11.760;2023-08-17T00:16:01;12.20;;;10.90;;
71648;SDS011;70112;45.624;11.760;2023-08-17T00:18:27;12.10;;;10.30;;
71648;SDS011;70112;45.624;11.760;2023-08-17T00:20:52;12.90;;;11.30;;
71648;SDS011;70112;45.624;11.760;2023-08-17T00:23:18;15.70;;;11.30;;
71648;SDS011;70112;45.624;11.760;2023-08-17T00:25:46;12.10;;;11.10;;
71648;SDS011;70112;45.624;11.760;2023-08-17T00:28:13;11.20;;;10.20;;
71648;SDS011;70112;45.624;11.760;2023-08-17T00:30:39;12.80;;;11.40;;
71648;SDS011;70112;45.624;11.760;2023-08-17T00:33:05;13.20;;;11.30;;
71648;SDS011;70112;45.624;11.760;2023-08-17T00:35:31;13.80;;;11.70;;
71648;SDS011;70112;45.624;11.760;2023-08-17T00:37:58;11.80;;;10.60;;
71648;SDS011;70112;45.624;11.760;2023-08-17T00:40:25;13.80;;;11.30;;
71648;SDS011;70112;45.624;11.760;2023-08-17T00:42:50;14.90;;;11.50;;
71648;SDS011;70112;45.624;11.760;2023-08-17T00:45:18;16.00;;;12.30;;
71648;SDS011;70112;45.624;11.760;2023-08-17T00:47:44;14.80;;;13.30;;
71648;SDS011;70112;45.624;11.760;2023-08-17T00:50:11;15.40;;;13.80;;
71648;SDS011;70112;45.624;11.760;2023-08-17T00:52:38;15.50;;;13.80;;
71648;SDS011;70112;45.624;11.760;2023-08-17T00:55:05;15.70;;;14.10;;
71648;SDS011;70112;45.624;11.760;2023-08-17T00:57:31;15.50;;;13.40;;
71648;SDS011;70112;45.624;11.760;2023-08-17T00:59:58;17.80;;;14.40;;
71648;SDS011;70112;45.624;11.760;2023-08-17T01:02:25;16.20;;;13.60;;
71648;SDS011;70112;45.624;11.760;2023-08-17T01:04:51;18.00;;;14.10;;
71648;SDS011;70112;45.624;11.760;2023-08-17T01:07:17;15.00;;;13.00;;
71648;SDS011;70112;45.624;11.760;2023-08-17T01:09:43;20.20;;;14.60;;
71648;SDS011;70112;45.624;11.760;2023-08-17T01:12:19;16.30;;;14.50;;
71648;SDS011;70112;45.624;11.760;2023-08-17T01:14:59;17.60;;;15.80;;
71648;SDS011;70112;45.624;11.760;2023-08-17T01:17:33;17.80;;;15.00;;
71648;SDS011;70112;45.624;11.760;2023-08-17T01:20:14;16.30;;;14.50;;
71648;SDS011;70112;45.624;11.760;2023-08-17T01:22:41;15.90;;;14.40;;
71648;SDS011;70112;45.624;11.760;2023-08-17T01:25:10;17.70;;;15.80;;
71648;SDS011;70112;45.624;11.760;2023-08-17T01:27:41;18.30;;;16.20;;
71648;SDS011;70112;45.624;11.760;2023-08-17T01:30:11;18.10;;;16.30;;
71648;SDS011;70112;45.624;11.760;2023-08-17T01:32:50;16.90;;;15.10;;
71648;SDS011;70112;45.624;11.760;2023-08-17T01:35:33;20.20;;;14.40;;
71648;SDS011;70112;45.624;11.760;2023-08-17T01:38:07;21.10;;;15.90;;
71648;SDS011;70112;45.624;11.760;2023-08-17T01:40:35;18.00;;;16.00;;
71648;SDS011;70112;45.624;11.760;2023-08-17T01:43:02;17.00;;;15.20;;
71648;SDS011;70112;45.624;11.760;2023-08-17T01:45:28;16.70;;;14.60;;
71648;SDS011;70112;45.624;11.760;2023-08-17T01:47:55;21.00;;;14.30;;
71648;SDS011;70112;45.624;11.760;2023-08-17T01:50:21;18.50;;;14.60;;
71648;SDS011;70112;45.624;11.760;2023-08-17T01:52:47;16.90;;;15.20;;
71648;SDS011;70112;45.624;11.760;2023-08-17T01:55:12;16.40;;;14.70;;
71648;SDS011;70112;45.624;11.760;2023-08-17T01:57:38;17.40;;;15.30;;
71648;SDS011;70112;45.624;11.760;2023-08-17T02:00:04;22.40;;;14.50;;
71648;SDS011;70112;45.624;11.760;2023-08-17T02:02:31;17.10;;;15.00;;
71648;SDS011;70112;45.624;11.760;2023-08-17T02:04:57;17.00;;;15.20;;
71648;SDS011;70112;45.624;11.760;2023-08-17T02:07:22;15.30;;;13.70;;
71648;SDS011;70112;45.624;11.760;2023-08-17T02:09:48;17.10;;;14.20;;
71648;SDS011;70112;45.624;11.760;2023-08-17T02:12:13;16.20;;;14.50;;
71648;SDS011;70112;45.624;11.760;2023-08-17T02:14:39;16.50;;;14.50;;
71648;SDS011;70112;45.624;11.760;2023-08-17T02:17:04;15.90;;;14.20;;
71648;SDS011;70112;45.624;11.760;2023-08-17T02:19:31;15.50;;;14.00;;
71648;SDS011;70112;45.624;11.760;2023-08-17T02:21:58;17.10;;;15.30;;
71648;SDS011;70112;45.624;11.760;2023-08-17T02:24:24;16.60;;;15.00;;
71648;SDS011;70112;45.624;11.760;2023-08-17T02:26:50;16.60;;;14.90;;
71648;SDS011;70112;45.624;11.760;2023-08-17T02:29:16;17.20;;;14.50;;
71648;SDS011;70112;45.624;11.760;2023-08-17T02:31:41;17.90;;;14.30;;
71648;SDS011;70112;45.624;11.760;2023-08-17T02:34:07;20.70;;;15.80;;
71648;SDS011;70112;45.624;11.760;2023-08-17T02:36:33;16.60;;;14.90;;
71648;SDS011;70112;45.624;11.760;2023-08-17T02:38:58;16.90;;;14.60;;
71648;SDS011;70112;45.624;11.760;2023-08-17T02:41:24;15.50;;;14.00;;
71648;SDS011;70112;45.624;11.760;2023-08-17T02:43:49;17.40;;;15.50;;
71648;SDS011;70112;45.624;11.760;2023-08-17T02:46:15;19.70;;;15.80;;
71648;SDS011;70112;45.624;11.760;2023-08-17T02:48:40;16.30;;;14.50;;
71648;SDS011;70112;45.624;11.760;2023-08-17T02:51:06;19.80;;;14.50;;
71648;SDS011;70112;45.624;11.760;2023-08-17T02:53:32;16.00;;;14.30;;
71648;SDS011;70112;45.624;11.760;2023-08-17T02:55:57;14.60;;;13.10;;
71648;SDS011;70112;45.624;11.760;2023-08-17T02:58:23;14.70;;;13.20;;
71648;SDS011;70112;45.624;11.760;2023-08-17T03:00:51;14.50;;;13.00;;
71648;SDS011;70112;45.624;11.760;2023-08-17T03:03:17;14.00;;;12.50;;
71648;SDS011;70112;45.624;11.760;2023-08-17T03:05:42;15.40;;;12.30;;
71648;SDS011;70112;45.624;11.760;2023-08-17T03:08:08;12.80;;;11.20;;
71648;SDS011;70112;45.624;11.760;2023-08-17T03:10:33;13.10;;;11.80;;
71648;SDS011;70112;45.624;11.760;2023-08-17T03:12:59;13.00;;;11.70;;
71648;SDS011;70112;45.624;11.760;2023-08-17T03:15:25;13.00;;;11.70;;
71648;SDS011;70112;45.624;11.760;2023-08-17T03:17:50;12.70;;;11.50;;
71648;SDS011;70112;45.624;11.760;2023-08-17T03:20:16;11.70;;;10.70;;
71648;SDS011;70112;45.624;11.760;2023-08-17T03:22:41;12.40;;;11.30;;
71648;SDS011;70112;45.624;11.760;2023-08-17T03:25:07;12.50;;;11.00;;
71648;SDS011;70112;45.624;11.760;2023-08-17T03:27:33;12.00;;;10.80;;
71648;SDS011;70112;45.624;11.760;2023-08-17T03:29:59;12.60;;;11.30;;
71648;SDS011;70112;45.624;11.760;2023-08-17T03:32:25;14.80;;;10.50;;
71648;SDS011;70112;45.624;11.760;2023-08-17T03:34:50;12.30;;;10.70;;
71648;SDS011;70112;45.624;11.760;2023-08-17T03:37:16;12.10;;;11.00;;
71648;SDS011;70112;45.624;11.760;2023-08-17T03:39:41;12.20;;;11.00;;
71648;SDS011;70112;45.624;11.760;2023-08-17T03:42:07;14.00;;;10.10;;
71648;SDS011;70112;45.624;11.760;2023-08-17T03:44:33;10.90;;;9.90;;
71648;SDS011;70112;45.624;11.760;2023-08-17T03:46:58;11.90;;;10.70;;
71648;SDS011;70112;45.624;11.760;2023-08-17T03:49:24;11.00;;;10.10;;
71648;SDS011;70112;45.624;11.760;2023-08-17T03:51:49;11.10;;;10.00;;
71648;SDS011;70112;45.624;11.760;2023-08-17T03:54:17;12.50;;;9.90;;
71648;SDS011;70112;45.624;11.760;2023-08-17T03:56:42;10.90;;;9.50;;
71648;SDS011;70112;45.624;11.760;2023-08-17T03:59:08;14.40;;;10.20;;
71648;SDS011;70112;45.624;11.760;2023-08-17T04:01:33;11.00;;;9.90;;
71648;SDS011;70112;45.624;11.760;2023-08-17T04:03:59;11.00;;;9.90;;
71648;SDS011;70112;45.624;11.760;2023-08-17T04:06:24;12.10;;;9.90;;
71648;SDS011;70112;45.624;11.760;2023-08-17T04:08:50;11.30;;;10.00;;
71648;SDS011;70112;45.624;11.760;2023-08-17T04:11:15;13.40;;;10.10;;
71648;SDS011;70112;45.624;11.760;2023-08-17T04:13:41;11.30;;;10.30;;
71648;SDS011;70112;45.624;11.760;2023-08-17T04:16:06;11.00;;;9.90;;
71648;SDS011;70112;45.624;11.760;2023-08-17T04:18:32;11.40;;;10.30;;
71648;SDS011;70112;45.624;11.760;2023-08-17T04:20:57;10.60;;;9.70;;
71648;SDS011;70112;45.624;11.760;2023-08-17T04:23:23;11.30;;;9.30;;
71648;SDS011;70112;45.624;11.760;2023-08-17T04:25:48;11.80;;;10.00;;
71648;SDS011;70112;45.624;11.760;2023-08-17T04:28:14;14.30;;;10.00;;
71648;SDS011;70112;45.624;11.760;2023-08-17T04:30:40;10.50;;;9.50;;
71648;SDS011;70112;45.624;11.760;2023-08-17T04:33:05;11.80;;;9.50;;
71648;SDS011;70112;45.624;11.760;2023-08-17T04:35:33;11.10;;;9.90;;
71648;SDS011;70112;45.624;11.760;2023-08-17T04:37:59;11.40;;;10.10;;
71648;SDS011;70112;45.624;11.760;2023-08-17T04:40:24;12.60;;;10.70;;
71648;SDS011;70112;45.624;11.760;2023-08-17T04:42:50;12.00;;;10.80;;
71648;SDS011;70112;45.624;11.760;2023-08-17T04:45:15;11.50;;;10.30;;
71648;SDS011;70112;45.624;11.760;2023-08-17T04:47:41;13.50;;;9.70;;
71648;SDS011;70112;45.624;11.760;2023-08-17T04:50:06;10.70;;;9.70;;
71648;SDS011;70112;45.624;11.760;2023-08-17T04:52:32;13.60;;;10.70;;
71648;SDS011;70112;45.624;11.760;2023-08-17T04:54:58;11.40;;;10.30;;
71648;SDS011;70112;45.624;11.760;2023-08-17T04:57:23;13.80;;;10.20;;
71648;SDS011;70112;45.624;11.760;2023-08-17T04:59:49;15.60;;;10.80;;
71648;SDS011;70112;45.624;11.760;2023-08-17T05:02:15;11.90;;;10.10;;
71648;SDS011;70112;45.624;11.760;2023-08-17T05:04:40;11.70;;;9.40;;
71648;SDS011;70112;45.624;11.760;2023-08-17T05:07:07;11.20;;;10.10;;
71648;SDS011;70112;45.624;11.760;2023-08-17T05:09:33;11.20;;;10.10;;
71648;SDS011;70112;45.624;11.760;2023-08-17T05:11:58;10.60;;;9.70;;
71648;SDS011;70112;45.624;11.760;2023-08-17T05:14:24;12.80;;;10.30;;
71648;SDS011;70112;45.624;11.760;2023-08-17T05:16:50;10.50;;;9.50;;
71648;SDS011;70112;45.624;11.760;2023-08-17T05:19:15;11.40;;;9.50;;
71648;SDS011;70112;45.624;11.760;2023-08-17T05:21:41;10.00;;;9.00;;
71648;SDS011;70112;45.624;11.760;2023-08-17T05:24:06;11.40;;;9.30;;
71648;SDS011;70112;45.624;11.760;2023-08-17T05:26:32;10.70;;;9.70;;
71648;SDS011;70112;45.624;11.760;2023-08-17T05:28:58;10.10;;;9.00;;
71648;SDS011;70112;45.624;11.760;2023-08-17T05:31:24;11.30;;;9.90;;
71648;SDS011;70112;45.624;11.760;2023-08-17T05:33:50;11.80;;;10.40;;
71648;SDS011;70112;45.624;11.760;2023-08-17T05:36:15;17.00;;;10.60;;
71648;SDS011;70112;45.624;11.760;2023-08-17T05:38:41;10.70;;;9.70;;
71648;SDS011;70112;45.624;11.760;2023-08-17T05:41:06;11.20;;;10.10;;
71648;SDS011;70112;45.624;11.760;2023-08-17T05:43:32;12.90;;;10.60;;
71648;SDS011;70112;45.624;11.760;2023-08-17T05:45:58;11.30;;;9.90;;
71648;SDS011;70112;45.624;11.760;2023-08-17T05:48:24;11.60;;;10.00;;
71648;SDS011;70112;45.624;11.760;2023-08-17T05:50:50;11.60;;;10.40;;
71648;SDS011;70112;45.624;11.760;2023-08-17T05:53:15;12.20;;;10.80;;
71648;SDS011;70112;45.624;11.760;2023-08-17T05:55:41;13.00;;;10.70;;
71648;SDS011;70112;45.624;11.760;2023-08-17T05:58:07;134.40;;;17.30;;
71648;SDS011;70112;45.624;11.760;2023-08-17T06:00:32;38.60;;;11.60;;
71648;SDS011;70112;45.624;11.760;2023-08-17T06:02:58;18.00;;;11.40;;
71648;SDS011;70112;45.624;11.760;2023-08-17T06:05:29;13.90;;;10.80;;
71648;SDS011;70112;45.624;11.760;2023-08-17T06:07:59;14.50;;;11.30;;
71648;SDS011;70112;45.624;11.760;2023-08-17T06:10:25;13.90;;;11.40;;
71648;SDS011;70112;45.624;11.760;2023-08-17T06:12:54;13.20;;;11.80;;
71648;SDS011;70112;45.624;11.760;2023-08-17T06:15:22;13.20;;;11.40;;
71648;SDS011;70112;45.624;11.760;2023-08-17T06:17:48;12.20;;;10.70;;
71648;SDS011;70112;45.624;11.760;2023-08-17T06:20:16;14.00;;;12.60;;
71648;SDS011;70112;45.624;11.760;2023-08-17T06:22:43;13.20;;;11.80;;
71648;SDS011;70112;45.624;11.760;2023-08-17T06:25:08;16.10;;;11.80;;
71648;SDS011;70112;45.624;11.760;2023-08-17T06:27:35;12.40;;;11.00;;
71648;SDS011;70112;45.624;11.760;2023-08-17T06:30:04;11.80;;;10.60;;
71648;SDS011;70112;45.624;11.760;2023-08-17T06:32:30;14.50;;;10.50;;
71648;SDS011;70112;45.624;11.760;2023-08-17T06:34:56;15.20;;;11.70;;
71648;SDS011;70112;45.624;11.760;2023-08-17T06:37:22;13.00;;;11.30;;
71648;SDS011;70112;45.624;11.760;2023-08-17T06:39:47;14.30;;;10.90;;
71648;SDS011;70112;45.624;11.760;2023-08-17T06:42:13;12.30;;;11.00;;
71648;SDS011;70112;45.624;11.760;2023-08-17T06:44:38;12.00;;;10.90;;
71648;SDS011;70112;45.624;11.760;2023-08-17T06:47:04;12.00;;;10.70;;
71648;SDS011;70112;45.624;11.760;2023-08-17T06:49:30;11.40;;;10.30;;
71648;SDS011;70112;45.624;11.760;2023-08-17T06:51:56;11.60;;;10.50;;
71648;SDS011;70112;45.624;11.760;2023-08-17T06:54:21;11.20;;;10.00;;
71648;SDS011;70112;45.624;11.760;2023-08-17T06:56:47;11.70;;;10.30;;
71648;SDS011;70112;45.624;11.760;2023-08-17T06:59:12;12.70;;;11.20;;
71648;SDS011;70112;45.624;11.760;2023-08-17T07:01:38;12.00;;;10.80;;
71648;SDS011;70112;45.624;11.760;2023-08-17T07:04:04;12.70;;;11.40;;
71648;SDS011;70112;45.624;11.760;2023-08-17T07:06:29;12.70;;;10.00;;
71648;SDS011;70112;45.624;11.760;2023-08-17T07:08:56;10.90;;;9.80;;
71648;SDS011;70112;45.624;11.760;2023-08-17T07:11:21;11.70;;;9.50;;
71648;SDS011;70112;45.624;11.760;2023-08-17T07:13:47;10.20;;;9.20;;
71648;SDS011;70112;45.624;11.760;2023-08-17T07:16:13;11.20;;;9.90;;
71648;SDS011;70112;45.624;11.760;2023-08-17T07:18:39;11.50;;;9.80;;
71648;SDS011;70112;45.624;11.760;2023-08-17T07:21:05;9.40;;;8.50;;
71648;SDS011;70112;45.624;11.760;2023-08-17T07:23:31;10.50;;;9.40;;
71648;SDS011;70112;45.624;11.760;2023-08-17T07:25:56;12.80;;;9.40;;
71648;SDS011;70112;45.624;11.760;2023-08-17T07:28:22;11.20;;;9.50;;
71648;SDS011;70112;45.624;11.760;2023-08-17T07:30:48;10.00;;;9.00;;
71648;SDS011;70112;45.624;11.760;2023-08-17T07:33:13;11.10;;;8.60;;
71648;SDS011;70112;45.624;11.760;2023-08-17T07:35:38;12.80;;;9.50;;
71648;SDS011;70112;45.624;11.760;2023-08-17T07:38:04;11.10;;;8.50;;
71648;SDS011;70112;45.624;11.760;2023-08-17T07:40:30;16.40;;;8.30;;
71648;SDS011;70112;45.624;11.760;2023-08-17T07:42:56;9.50;;;8.50;;
71648;SDS011;70112;45.624;11.760;2023-08-17T07:45:21;9.70;;;8.60;;
71648;SDS011;70112;45.624;11.760;2023-08-17T07:47:47;10.30;;;9.20;;
71648;SDS011;70112;45.624;11.760;2023-08-17T07:50:12;11.60;;;9.80;;
71648;SDS011;70112;45.624;11.760;2023-08-17T07:52:38;11.90;;;10.80;;
71648;SDS011;70112;45.624;11.760;2023-08-17T07:55:04;10.50;;;9.50;;
71648;SDS011;70112;45.624;11.760;2023-08-17T07:57:30;11.40;;;10.30;;
71648;SDS011;70112;45.624;11.760;2023-08-17T07:59:55;11.90;;;9.30;;
71648;SDS011;70112;45.624;11.760;2023-08-17T08:02:21;10.80;;;9.80;;
71648;SDS011;70112;45.624;11.760;2023-08-17T08:04:47;10.10;;;9.20;;
71648;SDS011;70112;45.624;11.760;2023-08-17T08:07:12;10.90;;;9.30;;
71648;SDS011;70112;45.624;11.760;2023-08-17T08:09:38;13.80;;;9.30;;
71648;SDS011;70112;45.624;11.760;2023-08-17T08:12:05;10.80;;;9.80;;
71648;SDS011;70112;45.624;11.760;2023-08-17T08:14:31;11.70;;;8.90;;
71648;SDS011;70112;45.624;11.760;2023-08-17T08:16:56;15.70;;;9.30;;
71648;SDS011;70112;45.624;11.760;2023-08-17T08:19:22;12.80;;;10.00;;
71648;SDS011;70112;45.624;11.760;2023-08-17T08:21:47;20.50;;;10.60;;
71648;SDS011;70112;45.624;11.760;2023-08-17T08:24:12;12.80;;;9.80;;
71648;SDS011;70112;45.624;11.760;2023-08-17T08:26:38;9.50;;;8.60;;
71648;SDS011;70112;45.624;11.760;2023-08-17T08:29:03;12.00;;;8.90;;
71648;SDS011;70112;45.624;11.760;2023-08-17T08:31:29;10.10;;;8.50;;
71648;SDS011;70112;45.624;11.760;2023-08-17T08:33:55;8.70;;;7.30;;
71648;SDS011;70112;45.624;11.760;2023-08-17T08:36:20;10.30;;;7.30;;
71648;SDS011;70112;45.624;11.760;2023-08-17T08:38:46;7.60;;;6.60;;
71648;SDS011;70112;45.624;11.760;2023-08-17T08:41:12;8.80;;;6.70;;
71648;SDS011;70112;45.624;11.760;2023-08-17T08:43:38;7.20;;;5.60;;
71648;SDS011;70112;45.624;11.760;2023-08-17T08:46:04;8.20;;;5.40;;
71648;SDS011;70112;45.624;11.760;2023-08-17T08:48:31;5.90;;;5.20;;
71648;SDS011;70112;45.624;11.760;2023-08-17T08:51:00;7.30;;;4.70;;
71648;SDS011;70112;45.624;11.760;2023-08-17T08:53:38;6.40;;;5.00;;
71648;SDS011;70112;45.624;11.760;2023-08-17T08:56:07;6.60;;;5.10;;
71648;SDS011;70112;45.624;11.760;2023-08-17T08:58:36;5.50;;;4.80;;
71648;SDS011;70112;45.624;11.760;2023-08-17T09:01:04;6.60;;;5.50;;
71648;SDS011;70112;45.624;11.760;2023-08-17T09:03:32;7.40;;;5.90;;
71648;SDS011;70112;45.624;11.760;2023-08-17T09:05:58;6.80;;;5.50;;
71648;SDS011;70112;45.624;11.760;2023-08-17T09:08:27;9.80;;;5.90;;
71648;SDS011;70112;45.624;11.760;2023-08-17T09:10:54;6.50;;;5.50;;
71648;SDS011;70112;45.624;11.760;2023-08-17T09:13:20;7.90;;;6.20;;
71648;SDS011;70112;45.624;11.760;2023-08-17T09:15:46;7.40;;;6.00;;
71648;SDS011;70112;45.624;11.760;2023-08-17T09:18:11;6.90;;;6.30;;
71648;SDS011;70112;45.624;11.760;2023-08-17T09:23:21;9.40;;;6.90;;
71648;SDS011;70112;45.624;11.760;2023-08-17T09:25:48;9.30;;;6.70;;
71648;SDS011;70112;45.624;11.760;2023-08-17T09:28:18;9.60;;;6.80;;
71648;SDS011;70112;45.624;11.760;2023-08-17T09:33:23;10.20;;;7.10;;
71648;SDS011;70112;45.624;11.760;2023-08-17T09:35:55;12.00;;;7.60;;
71648;SDS011;70112;45.624;11.760;2023-08-17T09:38:21;10.70;;;7.90;;
71648;SDS011;70112;45.624;11.760;2023-08-17T09:40:47;9.50;;;7.50;;
71648;SDS011;70112;45.624;11.760;2023-08-17T09:43:14;11.60;;;7.80;;
71648;SDS011;70112;45.624;11.760;2023-08-17T09:45:41;8.70;;;7.80;;
71648;SDS011;70112;45.624;11.760;2023-08-17T09:48:10;9.00;;;7.70;;
71648;SDS011;70112;45.624;11.760;2023-08-17T09:50:36;8.00;;;7.20;;
71648;SDS011;70112;45.624;11.760;2023-08-17T09:53:02;8.60;;;7.00;;
71648;SDS011;70112;45.624;11.760;2023-08-17T09:55:30;8.70;;;7.60;;
71648;SDS011;70112;45.624;11.760;2023-08-17T09:57:59;7.50;;;6.70;;
71648;SDS011;70112;45.624;11.760;2023-08-17T10:00:27;8.40;;;7.30;;
71648;SDS011;70112;45.624;11.760;2023-08-17T10:02:53;10.10;;;8.00;;
71648;SDS011;70112;45.624;11.760;2023-08-17T10:05:20;9.70;;;7.40;;
71648;SDS011;70112;45.624;11.760;2023-08-17T10:07:54;9.60;;;7.40;;
71648;SDS011;70112;45.624;11.760;2023-08-17T10:10:25;8.90;;;7.10;;
71648;SDS011;70112;45.624;11.760;2023-08-17T10:13:11;9.80;;;7.60;;
71648;SDS011;70112;45.624;11.760;2023-08-17T10:15:57;9.40;;;7.50;;
71648;SDS011;70112;45.624;11.760;2023-08-17T10:18:41;9.20;;;7.20;;
71648;SDS011;70112;45.624;11.760;2023-08-17T10:21:23;7.80;;;7.10;;
71648;SDS011;70112;45.624;11.760;2023-08-17T10:23:56;10.10;;;7.80;;
71648;SDS011;70112;45.624;11.760;2023-08-17T10:26:23;8.70;;;7.50;;
71648;SDS011;70112;45.624;11.760;2023-08-17T10:28:51;9.30;;;8.30;;
71648;SDS011;70112;45.624;11.760;2023-08-17T10:31:18;11.00;;;7.90;;
71648;SDS011;70112;45.624;11.760;2023-08-17T10:33:46;8.70;;;7.90;;
71648;SDS011;70112;45.624;11.760;2023-08-17T10:36:13;9.40;;;8.40;;
71648;SDS011;70112;45.624;11.760;2023-08-17T10:38:39;14.50;;;8.40;;
71648;SDS011;70112;45.624;11.760;2023-08-17T10:41:12;8.70;;;7.80;;
71648;SDS011;70112;45.624;11.760;2023-08-17T10:43:57;13.10;;;8.40;;
71648;SDS011;70112;45.624;11.760;2023-08-17T10:46:37;11.60;;;8.10;;
71648;SDS011;70112;45.624;11.760;2023-08-17T10:49:06;11.90;;;8.40;;
71648;SDS011;70112;45.624;11.760;2023-08-17T10:51:33;8.50;;;7.70;;
71648;SDS011;70112;45.624;11.760;2023-08-17T10:54:02;12.10;;;8.50;;
71648;SDS011;70112;45.624;11.760;2023-08-17T10:56:29;10.10;;;8.20;;
71648;SDS011;70112;45.624;11.760;2023-08-17T10:59:01;9.90;;;8.80;;
71648;SDS011;70112;45.624;11.760;2023-08-17T11:01:40;11.40;;;8.50;;
71648;SDS011;70112;45.624;11.760;2023-08-17T11:04:16;8.50;;;7.60;;
71648;SDS011;70112;45.624;11.760;2023-08-17T11:06:45;9.20;;;8.30;;
71648;SDS011;70112;45.624;11.760;2023-08-17T11:09:11;8.30;;;7.50;;
71648;SDS011;70112;45.624;11.760;2023-08-17T11:11:37;9.00;;;8.20;;
71648;SDS011;70112;45.624;11.760;2023-08-17T11:14:03;10.50;;;8.00;;
71648;SDS011;70112;45.624;11.760;2023-08-17T11:16:29;9.10;;;8.20;;
71648;SDS011;70112;45.624;11.760;2023-08-17T11:18:55;11.00;;;7.80;;
71648;SDS011;70112;45.624;11.760;2023-08-17T11:21:24;9.50;;;7.80;;
71648;SDS011;70112;45.624;11.760;2023-08-17T11:23:49;9.00;;;8.20;;
71648;SDS011;70112;45.624;11.760;2023-08-17T11:26:19;12.10;;;8.40;;
71648;SDS011;70112;45.624;11.760;2023-08-17T11:28:45;9.70;;;8.10;;
71648;SDS011;70112;45.624;11.760;2023-08-17T11:31:12;11.00;;;7.90;;
71648;SDS011;70112;45.624;11.760;2023-08-17T11:33:40;8.90;;;8.00;;
71648;SDS011;70112;45.624;11.760;2023-08-17T11:36:07;10.20;;;8.30;;
71648;SDS011;70112;45.624;11.760;2023-08-17T11:38:38;13.50;;;8.30;;
71648;SDS011;70112;45.624;11.760;2023-08-17T11:41:04;10.00;;;7.90;;
71648;SDS011;70112;45.624;11.760;2023-08-17T11:43:33;8.40;;;7.40;;
71648;SDS011;70112;45.624;11.760;2023-08-17T11:46:00;9.60;;;8.10;;
71648;SDS011;70112;45.624;11.760;2023-08-17T11:48:27;11.00;;;8.70;;
71648;SDS011;70112;45.624;11.760;2023-08-17T11:50:53;10.10;;;8.00;;
71648;SDS011;70112;45.624;11.760;2023-08-17T11:53:20;9.20;;;8.40;;
71648;SDS011;70112;45.624;11.760;2023-08-17T11:55:46;9.70;;;8.30;;
71648;SDS011;70112;45.624;11.760;2023-08-17T11:58:12;8.70;;;7.90;;
71648;SDS011;70112;45.624;11.760;2023-08-17T12:00:44;9.40;;;8.50;;
71648;SDS011;70112;45.624;11.760;2023-08-17T12:03:16;12.30;;;8.70;;
71648;SDS011;70112;45.624;11.760;2023-08-17T12:05:44;9.40;;;8.20;;
71648;SDS011;70112;45.624;11.760;2023-08-17T12:08:10;9.50;;;8.40;;
71648;SDS011;70112;45.624;11.760;2023-08-17T12:10:38;9.60;;;8.60;;
71648;SDS011;70112;45.624;11.760;2023-08-17T12:13:03;10.50;;;8.30;;
71648;SDS011;70112;45.624;11.760;2023-08-17T12:15:33;10.50;;;8.00;;
71648;SDS011;70112;45.624;11.760;2023-08-17T12:18:02;10.40;;;9.20;;
71648;SDS011;70112;45.624;11.760;2023-08-17T12:20:30;10.10;;;8.50;;
71648;SDS011;70112;45.624;11.760;2023-08-17T12:22:58;8.90;;;8.00;;
71648;SDS011;70112;45.624;11.760;2023-08-17T12:25:25;9.20;;;8.20;;
71648;SDS011;70112;45.624;11.760;2023-08-17T12:27:51;9.80;;;8.30;;
71648;SDS011;70112;45.624;11.760;2023-08-17T12:30:31;10.20;;;8.60;;
71648;SDS011;70112;45.624;11.760;2023-08-17T12:33:02;11.50;;;8.70;;
71648;SDS011;70112;45.624;11.760;2023-08-17T12:35:30;11.30;;;9.00;;
71648;SDS011;70112;45.624;11.760;2023-08-17T12:37:56;10.50;;;9.20;;
71648;SDS011;70112;45.624;11.760;2023-08-17T12:40:22;10.00;;;9.00;;
71648;SDS011;70112;45.624;11.760;2023-08-17T12:42:49;11.30;;;9.10;;
71648;SDS011;70112;45.624;11.760;2023-08-17T12:45:15;9.70;;;8.50;;
71648;SDS011;70112;45.624;11.760;2023-08-17T12:47:41;9.20;;;8.40;;
71648;SDS011;70112;45.624;11.760;2023-08-17T12:50:07;9.80;;;8.10;;
71648;SDS011;70112;45.624;11.760;2023-08-17T12:52:33;11.40;;;8.90;;
71648;SDS011;70112;45.624;11.760;2023-08-17T12:54:59;10.20;;;9.10;;
71648;SDS011;70112;45.624;11.760;2023-08-17T12:57:25;9.60;;;8.70;;
71648;SDS011;70112;45.624;11.760;2023-08-17T12:59:52;11.10;;;9.00;;
71648;SDS011;70112;45.624;11.760;2023-08-17T13:02:20;10.00;;;9.10;;
71648;SDS011;70112;45.624;11.760;2023-08-17T13:04:46;9.20;;;8.10;;
71648;SDS011;70112;45.624;11.760;2023-08-17T13:07:11;10.30;;;9.40;;
71648;SDS011;70112;45.624;11.760;2023-08-17T13:09:37;11.40;;;9.10;;
71648;SDS011;70112;45.624;11.760;2023-08-17T13:12:02;9.60;;;8.60;;
71648;SDS011;70112;45.624;11.760;2023-08-17T13:14:28;10.60;;;9.00;;
71648;SDS011;70112;45.624;11.760;2023-08-17T13:16:54;11.10;;;9.40;;
71648;SDS011;70112;45.624;11.760;2023-08-17T13:19:19;10.90;;;8.90;;
71648;SDS011;70112;45.624;11.760;2023-08-17T13:21:45;10.00;;;8.90;;
71648;SDS011;70112;45.624;11.760;2023-08-17T13:24:11;10.60;;;9.50;;
71648;SDS011;70112;45.624;11.760;2023-08-17T13:26:38;10.90;;;8.60;;
71648;SDS011;70112;45.624;11.760;2023-08-17T13:29:03;10.70;;;9.40;;
71648;SDS011;70112;45.624;11.760;2023-08-17T13:31:29;10.30;;;9.20;;
71648;SDS011;70112;45.624;11.760;2023-08-17T13:33:55;9.90;;;8.90;;
71648;SDS011;70112;45.624;11.760;2023-08-17T13:36:20;12.50;;;9.00;;
71648;SDS011;70112;45.624;11.760;2023-08-17T13:38:46;10.60;;;9.20;;
71648;SDS011;70112;45.624;11.760;2023-08-17T13:41:12;9.90;;;8.70;;
71648;SDS011;70112;45.624;11.760;2023-08-17T13:43:38;11.00;;;9.30;;
71648;SDS011;70112;45.624;11.760;2023-08-17T13:46:04;9.70;;;8.70;;
71648;SDS011;70112;45.624;11.760;2023-08-17T13:48:30;15.90;;;9.20;;
71648;SDS011;70112;45.624;11.760;2023-08-17T13:50:55;10.80;;;8.90;;
71648;SDS011;70112;45.624;11.760;2023-08-17T13:53:21;10.60;;;9.60;;
71648;SDS011;70112;45.624;11.760;2023-08-17T13:55:46;10.70;;;9.00;;
71648;SDS011;70112;45.624;11.760;2023-08-17T13:58:12;10.40;;;9.50;;
71648;SDS011;70112;45.624;11.760;2023-08-17T14:00:37;11.70;;;8.80;;
71648;SDS011;70112;45.624;11.760;2023-08-17T14:03:03;10.10;;;9.20;;
71648;SDS011;70112;45.624;11.760;2023-08-17T14:05:29;13.40;;;9.60;;
71648;SDS011;70112;45.624;11.760;2023-08-17T14:07:55;10.60;;;9.60;;
71648;SDS011;70112;45.624;11.760;2023-08-17T14:10:20;10.20;;;8.90;;
71648;SDS011;70112;45.624;11.760;2023-08-17T14:12:46;12.90;;;8.30;;
71648;SDS011;70112;45.624;11.760;2023-08-17T14:15:12;13.60;;;8.80;;
71648;SDS011;70112;45.624;11.760;2023-08-17T14:17:37;9.80;;;8.80;;
71648;SDS011;70112;45.624;11.760;2023-08-17T14:20:03;9.40;;;8.50;;
71648;SDS011;70112;45.624;11.760;2023-08-17T14:22:30;10.10;;;8.90;;